METAR Data
IDs: Format: Raw Decoded Include TAF

Data at: 0835 UTC 18 Nov 2018

PARY 180756Z AUTO 07015G20KT 10SM OVC080 M09/M13 A2953 RMK AO2 SLP030 T10891133 410891139 FZRANO
PARY 180656Z AUTO 08014KT 10SM OVC080 M10/M13 A2954 RMK AO2 SLP032 T11001133 FZRANO
PARY 180556Z AUTO 07012G19KT 10SM BKN075 BKN090 M10/M13 A2955 RMK AO2 SLP035 T11001133 11089 21111 56009 FZRANO
PARY 180456Z AUTO 07013KT 10SM OVC080 M09/M13 A2956 RMK AO2 SLP039 T10941133 FZRANO
PARY 180356Z AUTO 08016G22KT 10SM BKN080 OVC100 M09/M13 A2955 RMK AO2 SLP038 T10891133 FZRANO
PARY 180256Z AUTO 07012KT 10SM FEW100 M10/M14 A2957 RMK AO2 SLP045 T11001139 58008 FZRANO
PARY 180156Z AUTO 07011KT 10SM BKN110 M11/M14 A2959 RMK AO2 SLP051 T11111144 FZRANO
PARY 180056Z AUTO 07010KT 10SM CLR M11/M14 A2960 RMK AO2 SLP053 T11061139 FZRANO
PARY 172356Z AUTO 07013KT 10SM CLR M10/M14 A2960 RMK AO2 SLP052 T11001139 11094 21128 58011 FZRANO
PARY 172256Z AUTO 08014KT 10SM FEW120 M09/M14 A2961 RMK AO2 SLP056 T10941139 FZRANO
PARY 172156Z AUTO 08013G19KT 10SM CLR M10/M14 A2962 RMK AO2 SLP060 T11001139 FZRANO
PARY 172056Z AUTO 08015KT 10SM CLR M11/M14 A2963 RMK AO2 SLP064 T11111144 58009 FZRANO
PARY 171956Z AUTO 08013KT 10SM CLR M12/M16 A2964 RMK AO2 SLP067 T11171156 FZRANO
PARY 171856Z AUTO 08016G21KT 10SM SCT110 M12/M16 A2965 RMK AO2 SLP071 T11221161 FZRANO
PARY 171756Z AUTO 08014KT 10SM BKN120 M13/M16 A2966 RMK AO2 SLP073 T11281161 11111 21139 56008 FZRANO
PARY 171656Z AUTO 08015KT 10SM OVC110 M13/M17 A2966 RMK AO2 SLP074 T11331167 FZRANO
PARY 171556Z AUTO 08010KT 10SM OVC110 M14/M17 A2967 RMK AO2 SLP077 T11391167 FZRANO
PARY 171456Z AUTO 08010KT 10SM CLR M13/M17 A2968 RMK AO2 SLP082 T11331167 56019 FZRANO
PARY 171356Z AUTO 07010KT 10SM CLR M13/M16 A2970 RMK AO2 SLP088 T11331161 FZRANO
PARY 171256Z AUTO 08014KT 10SM BKN060 M12/M16 A2972 RMK AO2 SLP093 T11221156 FZRANO
PARY 171156Z AUTO 07015G22KT 10SM OVC060 M12/M15 A2974 RMK AO2 SLP100 T11171150 11100 21117 58019 FZRANO
PARY 171056Z AUTO 07012KT 10SM OVC065 M11/M15 A2977 RMK AO2 SLP111 T11111150 FZRANO
PARY 170956Z AUTO 08010G19KT 10SM OVC065 M11/M15 A2978 RMK AO2 SLP116 T11111150 FZRANO
PARY 170856Z AUTO 07011KT 10SM SCT055 M12/M15 A2979 RMK AO2 SLP120 T11171150 56015 FZRANO
PARY 170756Z AUTO 08011KT 10SM OVC048 M11/M14 A2980 RMK AO2 SLP123 T11061139 410941161 FZRANO
PARY 170656Z AUTO 08013KT 10SM OVC040 M10/M13 A2982 RMK AO2 SLP129 T11001133 FZRANO
PARY 170556Z AUTO 07011KT 10SM OVC032 M10/M13 A2984 RMK AO2 SLP136 60000 T11001133 11094 21111 58021 FZRANO
PARY 170456Z AUTO 08015KT 10SM M10/M14 A2986 RMK AO2 SLP144 T11001139 FZRANO
PARY 170356Z AUTO 07012G19KT 10SM OVC038 M10/M13 A2988 RMK AO2 SNE22 SLP151 P0000 T11001133 FZRANO
PARY 170256Z AUTO 08014G19KT 9SM -SN M10/M12 A2990 RMK AO2 SLP157 P0000 60000 T11001122 56014 FZRANO
PARY 170232Z AUTO 08014G19KT 9SM -SN SCT014 OVC039 M10/M12 A2991 RMK AO2 P0000 FZRANO
PARY 170156Z AUTO 08014G23KT 9SM -SN OVC014 M10/M12 A2991 RMK AO2 SNB16 SLP162 P0000 T11001122 FZRANO
PARY 170104Z AUTO 08016G22KT 10SM BKN014 OVC033 M09/M12 A2992 RMK AO2 FZRANO
PARY 170056Z AUTO 09016G22KT 10SM SCT014 OVC033 M10/M12 A2993 RMK AO2 SLP166 T11001122 FZRANO
PARY 162356Z AUTO 08012KT 10SM BKN035 BKN110 M11/M14 A2994 RMK AO2 SLP170 60000 T11111144 11106 21133 58019 FZRANO
PARY 162256Z AUTO 08015KT 10SM BKN080 M12/M15 A2997 RMK AO2 SLP179 T11171150 FZRANO
PARY 162156Z AUTO 08011KT 10SM BKN090 OVC120 M12/M16 A3000 RMK AO2 SLP188 T11171156 FZRANO
PARY 162056Z AUTO 08010KT 10SM SCT085 M11/M15 A3000 RMK AO2 SNB00E33 SLP190 P0000 60000 T11111150 56005 FZRANO